Time;durP1;ratioP1;P1;durP2;ratioP2;P2;SDS_P1;SDS_P2;PMS_P1;PMS_P2;Temp;Humidity;BMP_temperature;BMP_pressure;BME280_temperature;BME280_humidity;BME280_pressure;Samples;Min_cycle;Max_cycle;Signal;HPM_P1;HPM_P2
2023/08/07 00:02:25;;;;;;;10.80;9.52;;;26.90;81.70;;;;;;5022922;28;20025;-86
2023/08/07 00:04:51;;;;;;;11.32;9.15;;;26.90;82.00;;;;;;5022428;28;20018;-86
2023/08/07 00:07:18;;;;;;;12.15;8.93;;;26.80;82.30;;;;;;5023310;28;20045;-86
2023/08/07 00:09:43;;;;;;;10.00;9.00;;;26.90;82.40;;;;;;5021213;28;20061;-86
2023/08/07 00:12:09;;;;;;;10.25;9.25;;;26.80;82.60;;;;;;5022794;28;20092;-86
2023/08/07 00:14:35;;;;;;;10.10;9.20;;;26.80;83.00;;;;;;5022666;28;20445;-86
2023/08/07 00:17:00;;;;;;;12.25;9.45;;;26.80;83.30;;;;;;5023660;28;20037;-86
2023/08/07 00:19:26;;;;;;;11.88;9.75;;;26.80;83.40;;;;;;5022918;28;20030;-86
2023/08/07 00:21:52;;;;;;;13.00;9.93;;;26.80;83.70;;;;;;5021907;28;20022;-86
2023/08/07 00:24:17;;;;;;;11.20;10.10;;;26.80;83.80;;;;;;5021684;28;20025;-86
2023/08/07 00:26:43;;;;;;;11.85;10.43;;;26.70;83.90;;;;;;5022124;28;20053;-86
2023/08/07 00:29:09;;;;;;;11.07;10.02;;;26.70;84.00;;;;;;5021173;28;20025;-86
2023/08/07 00:31:34;;;;;;;11.65;10.50;;;26.70;84.10;;;;;;5021019;28;20044;-86
2023/08/07 00:34:00;;;;;;;12.00;10.50;;;26.70;84.40;;;;;;5021411;28;20113;-86
2023/08/07 00:36:28;;;;;;;11.60;10.43;;;26.70;85.10;;;;;;5020884;28;20033;-86
2023/08/07 00:38:54;;;;;;;11.55;10.45;;;26.60;85.20;;;;;;5021416;28;20037;-86
2023/08/07 00:41:20;;;;;;;12.27;10.82;;;26.60;85.60;;;;;;5022358;28;20022;-86
2023/08/07 00:43:46;;;;;;;11.52;10.43;;;26.60;85.60;;;;;;5021922;28;20018;-86
2023/08/07 00:46:11;;;;;;;12.05;10.85;;;26.60;85.90;;;;;;5022277;28;20100;-86
2023/08/07 00:48:38;;;;;;;14.02;11.52;;;26.50;86.30;;;;;;5021478;28;20449;-86
2023/08/07 00:51:04;;;;;;;13.48;12.18;;;26.50;86.00;;;;;;5022662;28;20032;-86
2023/08/07 00:53:30;;;;;;;14.50;12.20;;;26.50;86.20;;;;;;5021606;28;20089;-86
2023/08/07 00:55:57;;;;;;;12.52;11.18;;;26.50;86.50;;;;;;5021090;28;20049;-86
2023/08/07 00:58:23;;;;;;;13.95;12.48;;;26.50;86.50;;;;;;5022936;28;20029;-86
2023/08/07 01:00:49;;;;;;;13.88;12.35;;;26.50;86.50;;;;;;5023053;28;20022;-86
2023/08/07 01:03:15;;;;;;;13.23;11.93;;;26.40;86.80;;;;;;5022126;28;20036;-86
2023/08/07 01:05:41;;;;;;;13.52;12.10;;;26.40;86.90;;;;;;5021130;28;20024;-86
2023/08/07 01:08:07;;;;;;;13.00;11.40;;;26.40;86.80;;;;;;5021765;28;20037;-86
2023/08/07 01:11:05;;;;;;;12.25;11.05;;;26.40;86.70;;;;;;5022725;28;20037;-86
2023/08/07 01:13:55;;;;;;;13.02;11.68;;;26.40;85.50;;;;;;5019895;28;20512;-86
2023/08/07 01:16:31;;;;;;;13.00;11.60;;;26.40;85.60;;;;;;5021982;28;20041;-86
2023/08/07 01:18:58;;;;;;;13.05;11.75;;;26.40;86.10;;;;;;5021571;28;20562;-86
2023/08/07 01:21:24;;;;;;;13.70;12.23;;;26.40;86.10;;;;;;5021510;28;20089;-86
2023/08/07 01:23:49;;;;;;;12.80;11.50;;;26.30;85.90;;;;;;5019081;28;20045;-86
2023/08/07 01:26:19;;;;;;;12.80;11.50;;;26.30;85.00;;;;;;5019868;28;20034;-86
2023/08/07 01:29:04;;;;;;;12.63;11.20;;;26.20;84.80;;;;;;5020472;28;20053;-85
2023/08/07 01:31:33;;;;;;;12.88;11.57;;;26.20;84.70;;;;;;5020676;28;20071;-86
2023/08/07 01:34:08;;;;;;;12.88;11.45;;;26.10;85.30;;;;;;5022250;28;20029;-86
2023/08/07 01:36:34;;;;;;;12.57;11.35;;;26.10;86.20;;;;;;5021453;28;20021;-86
2023/08/07 01:39:01;;;;;;;13.80;11.93;;;26.00;86.50;;;;;;5021346;28;20037;-86
2023/08/07 01:41:28;;;;;;;13.77;12.38;;;26.10;87.50;;;;;;5021333;28;20026;-86
2023/08/07 01:43:54;;;;;;;13.18;11.88;;;26.00;88.20;;;;;;5020229;28;20022;-86
2023/08/07 01:46:20;;;;;;;15.98;12.98;;;26.00;89.00;;;;;;5021157;28;20032;-86
2023/08/07 01:48:46;;;;;;;14.07;12.68;;;26.10;89.70;;;;;;5024111;28;20113;-86
2023/08/07 01:51:12;;;;;;;14.43;13.02;;;26.10;90.10;;;;;;5025315;28;20076;-86
2023/08/07 01:53:38;;;;;;;14.55;13.15;;;26.00;90.20;;;;;;5024621;28;20125;-86
2023/08/07 01:56:04;;;;;;;15.73;13.02;;;26.00;90.40;;;;;;5025344;28;20026;-86
2023/08/07 01:58:29;;;;;;;15.70;13.18;;;26.00;90.60;;;;;;5024895;28;20093;-85
2023/08/07 02:00:55;;;;;;;13.82;12.43;;;26.10;90.90;;;;;;5024441;28;20022;-86
2023/08/07 02:03:21;;;;;;;14.52;13.13;;;26.10;91.00;;;;;;5026326;28;20474;-86
2023/08/07 02:05:47;;;;;;;14.00;12.60;;;26.00;90.90;;;;;;5024560;28;20437;-86
2023/08/07 02:08:12;;;;;;;12.57;11.38;;;26.00;91.00;;;;;;5023468;28;20034;-86
2023/08/07 02:10:38;;;;;;;13.23;11.93;;;26.00;91.10;;;;;;5023921;28;20053;-86
2023/08/07 02:13:04;;;;;;;13.85;12.07;;;25.90;90.70;;;;;;5024151;28;20030;-86
2023/08/07 02:15:30;;;;;;;13.93;12.50;;;25.90;90.80;;;;;;5023906;28;20058;-86
2023/08/07 02:17:55;;;;;;;12.68;11.38;;;25.90;90.80;;;;;;5024385;28;20506;-86
2023/08/07 02:20:21;;;;;;;15.05;12.32;;;25.90;90.70;;;;;;5024191;28;20030;-86
2023/08/07 02:22:47;;;;;;;13.48;12.07;;;25.90;90.60;;;;;;5023744;28;20036;-86
2023/08/07 02:25:12;;;;;;;14.45;12.20;;;25.90;90.80;;;;;;5023331;28;20026;-86
2023/08/07 02:27:38;;;;;;;13.68;12.23;;;25.90;90.80;;;;;;5025123;28;20121;-86
2023/08/07 02:30:05;;;;;;;12.70;11.43;;;25.90;91.00;;;;;;5024456;28;20030;-86
2023/08/07 02:32:31;;;;;;;13.10;11.73;;;25.90;90.60;;;;;;5023773;28;20053;-86
2023/08/07 02:34:57;;;;;;;12.00;10.82;;;25.90;89.60;;;;;;5022085;28;20030;-86
2023/08/07 02:37:22;;;;;;;12.48;10.57;;;25.80;88.00;;;;;;5023039;28;20022;-86
2023/08/07 02:39:48;;;;;;;12.05;10.93;;;25.80;86.40;;;;;;5023760;28;20030;-86
2023/08/07 02:42:14;;;;;;;13.27;11.68;;;25.80;84.90;;;;;;5023929;28;20022;-86
2023/08/07 02:44:39;;;;;;;11.73;10.57;;;25.80;83.80;;;;;;5022960;28;20048;-86
2023/08/07 02:47:06;;;;;;;11.90;10.65;;;25.70;83.20;;;;;;5024279;28;20033;-86
2023/08/07 02:49:31;;;;;;;15.23;11.10;;;25.70;82.50;;;;;;5024463;28;20167;-86
2023/08/07 02:51:57;;;;;;;12.00;10.75;;;25.70;81.90;;;;;;5023439;28;20575;-86
2023/08/07 02:54:23;;;;;;;11.63;10.43;;;25.70;81.00;;;;;;5025367;28;20409;-86
2023/08/07 02:56:49;;;;;;;12.77;11.02;;;25.70;80.90;;;;;;5024837;28;20026;-86
2023/08/07 02:59:15;;;;;;;12.35;10.18;;;25.70;80.80;;;;;;5023260;28;20026;-86
2023/08/07 03:01:42;;;;;;;11.75;10.50;;;25.70;80.40;;;;;;5023166;28;20052;-84
2023/08/07 03:04:07;;;;;;;12.20;10.68;;;25.70;80.10;;;;;;5023395;28;20034;-84
2023/08/07 03:06:33;;;;;;;12.63;11.05;;;25.70;79.60;;;;;;5023774;28;20098;-85
2023/08/07 03:08:59;;;;;;;12.25;10.88;;;25.70;79.10;;;;;;5024369;28;20040;-85
2023/08/07 03:11:25;;;;;;;12.50;10.52;;;25.70;78.90;;;;;;5022755;28;20120;-84
2023/08/07 03:13:50;;;;;;;13.90;11.20;;;25.70;78.50;;;;;;5022725;28;20040;-84
2023/08/07 03:16:16;;;;;;;12.25;10.80;;;25.60;78.10;;;;;;5023431;28;20054;-85
2023/08/07 03:18:42;;;;;;;13.63;11.57;;;25.60;77.70;;;;;;5025296;28;20169;-84
2023/08/07 03:21:07;;;;;;;13.05;10.98;;;25.60;77.50;;;;;;5025809;28;20465;-85
2023/08/07 03:23:33;;;;;;;14.57;12.00;;;25.60;77.30;;;;;;5026886;28;20034;-84
2023/08/07 03:26:09;;;;;;;14.32;12.82;;;25.60;77.10;;;;;;5024002;28;20033;-85
2023/08/07 03:28:36;;;;;;;15.52;11.93;;;25.60;76.80;;;;;;5023020;28;20029;-84
2023/08/07 03:31:02;;;;;;;12.70;11.23;;;25.60;76.60;;;;;;5022632;28;20037;-84
2023/08/07 03:33:28;;;;;;;14.57;11.48;;;25.60;76.60;;;;;;5022329;28;20030;-84
2023/08/07 03:35:54;;;;;;;13.73;12.30;;;25.60;76.60;;;;;;5021258;28;20037;-85
2023/08/07 03:38:20;;;;;;;14.15;11.63;;;25.70;76.50;;;;;;5022770;28;20026;-85
2023/08/07 03:40:46;;;;;;;14.90;11.40;;;25.80;76.50;;;;;;5023812;28;20029;-85
2023/08/07 03:43:12;;;;;;;12.80;11.45;;;25.80;76.20;;;;;;5023276;28;20026;-85
2023/08/07 03:45:38;;;;;;;14.13;11.18;;;25.90;76.00;;;;;;5023668;28;20503;-85
2023/08/07 03:48:04;;;;;;;13.10;11.77;;;26.00;76.10;;;;;;5021397;28;20520;-85
2023/08/07 03:50:30;;;;;;;15.32;12.00;;;26.10;75.90;;;;;;5020450;28;20022;-85
2023/08/07 03:52:56;;;;;;;13.98;10.55;;;26.20;75.60;;;;;;5021671;28;20500;-85
2023/08/07 03:55:22;;;;;;;12.82;11.55;;;26.30;75.30;;;;;;5023911;28;20085;-85
2023/08/07 03:57:47;;;;;;;14.10;11.40;;;26.50;75.90;;;;;;5021275;28;20026;-85
2023/08/07 04:00:13;;;;;;;13.77;10.52;;;26.60;74.90;;;;;;5021258;28;20068;-85
2023/08/07 04:02:40;;;;;;;11.82;10.45;;;26.70;74.60;;;;;;5021491;28;20032;-85
2023/08/07 04:05:06;;;;;;;11.25;10.15;;;26.90;74.00;;;;;;5021893;28;20037;-85
2023/08/07 04:07:31;;;;;;;14.23;10.65;;;27.10;73.60;;;;;;5021944;28;20026;-85
2023/08/07 04:09:57;;;;;;;11.85;10.60;;;27.20;73.10;;;;;;5022764;28;20038;-85
2023/08/07 04:12:23;;;;;;;12.10;10.13;;;27.40;72.50;;;;;;5020289;28;20120;-85
2023/08/07 04:14:48;;;;;;;11.63;10.45;;;27.70;71.90;;;;;;5021456;28;20072;-85
2023/08/07 04:17:14;;;;;;;12.55;10.40;;;28.00;71.20;;;;;;5022445;28;20164;-85
2023/08/07 04:19:40;;;;;;;12.05;10.68;;;28.40;70.20;;;;;;5021394;28;20041;-85
2023/08/07 04:22:05;;;;;;;14.10;10.20;;;28.60;69.10;;;;;;5021380;28;20109;-85
2023/08/07 04:24:31;;;;;;;11.25;10.15;;;29.00;68.60;;;;;;5020145;28;20049;-85
2023/08/07 04:26:57;;;;;;;14.55;10.48;;;29.20;67.70;;;;;;5022438;28;20025;-85
2023/08/07 04:29:24;;;;;;;13.55;10.30;;;29.30;67.20;;;;;;5022802;28;20076;-86
2023/08/07 04:31:49;;;;;;;12.68;10.55;;;29.20;66.70;;;;;;5025161;28;20034;-86
2023/08/07 04:34:15;;;;;;;12.35;10.07;;;29.20;66.70;;;;;;5024395;28;20061;-86
2023/08/07 04:36:41;;;;;;;11.80;10.45;;;29.00;67.00;;;;;;5026230;28;20037;-85
2023/08/07 04:39:07;;;;;;;14.77;9.98;;;28.80;67.00;;;;;;5023358;28;20026;-85
2023/08/07 04:41:32;;;;;;;12.75;10.38;;;28.70;67.30;;;;;;5023316;28;20026;-85
2023/08/07 04:43:58;;;;;;;14.25;10.75;;;28.60;67.60;;;;;;5024423;28;20018;-85
2023/08/07 04:46:24;;;;;;;11.50;9.65;;;28.50;68.20;;;;;;5025145;28;20049;-86
2023/08/07 04:48:49;;;;;;;13.15;10.43;;;28.50;68.40;;;;;;5022609;28;20511;-86
2023/08/07 04:51:15;;;;;;;14.75;10.38;;;28.70;68.90;;;;;;5024742;28;20026;-86
2023/08/07 04:53:41;;;;;;;12.45;9.95;;;28.90;68.10;;;;;;5025052;28;20030;-86
2023/08/07 04:56:07;;;;;;;15.00;10.35;;;29.00;67.70;;;;;;5026117;28;20045;-86
2023/08/07 04:58:33;;;;;;;13.35;10.68;;;29.00;67.70;;;;;;5024687;28;20065;-86
2023/08/07 05:01:00;;;;;;;18.00;9.52;;;28.90;68.00;;;;;;5026366;28;20060;-86
2023/08/07 05:03:26;;;;;;;11.90;9.05;;;29.00;68.60;;;;;;5026074;28;20030;-86
2023/08/07 05:05:58;;;;;;;17.63;10.73;;;29.20;68.10;;;;;;5026571;28;20113;-87
2023/08/07 05:08:24;;;;;;;14.43;9.63;;;29.30;67.70;;;;;;5026444;28;20029;-86
2023/08/07 05:10:49;;;;;;;16.00;10.73;;;29.40;67.80;;;;;;5026368;28;20026;-86
2023/08/07 05:13:15;;;;;;;13.35;9.93;;;29.40;67.70;;;;;;5026149;28;20044;-86
2023/08/07 05:15:41;;;;;;;13.02;9.93;;;29.40;67.60;;;;;;4315396;28;20046;-86
2023/08/07 05:18:07;;;;;;;10.88;9.65;;;29.40;67.60;;;;;;5027662;28;20080;-86
2023/08/07 05:20:32;;;;;;;14.55;9.85;;;29.30;67.80;;;;;;5026059;28;20033;-86
2023/08/07 05:22:58;;;;;;;12.55;10.25;;;29.20;68.30;;;;;;5028717;28;20026;-86
2023/08/07 05:25:24;;;;;;;14.38;10.15;;;29.00;68.60;;;;;;5031568;28;20040;-86
2023/08/07 05:27:49;;;;;;;13.52;10.35;;;28.90;68.80;;;;;;5030103;28;20053;-86
2023/08/07 05:30:15;;;;;;;12.95;10.30;;;28.80;69.00;;;;;;5027989;28;20026;-86
2023/08/07 05:32:41;;;;;;;13.45;10.60;;;28.70;69.50;;;;;;5031935;28;20034;-86
2023/08/07 05:35:07;;;;;;;13.88;9.95;;;28.60;69.90;;;;;;5031893;28;20030;-86
2023/08/07 05:37:34;;;;;;;15.38;10.20;;;28.60;70.10;;;;;;5031481;28;20026;-86
2023/08/07 05:40:00;;;;;;;14.27;10.82;;;28.70;70.10;;;;;;5031777;28;20022;-85
2023/08/07 05:42:25;;;;;;;14.45;11.90;;;28.80;70.00;;;;;;5032524;28;20029;-85
2023/08/07 05:44:51;;;;;;;18.40;11.48;;;28.80;70.10;;;;;;5045837;28;20103;-84
2023/08/07 05:47:17;;;;;;;16.05;11.65;;;28.70;70.20;;;;;;5050579;28;20378;-84
2023/08/07 05:49:42;;;;;;;18.20;11.48;;;28.60;70.80;;;;;;5047954;28;20022;-84
2023/08/07 05:52:08;;;;;;;13.95;10.68;;;28.50;71.10;;;;;;5045723;28;20098;-84
2023/08/07 05:54:34;;;;;;;14.88;10.88;;;28.40;71.40;;;;;;5052179;28;20141;-87
2023/08/07 05:57:00;;;;;;;15.30;11.63;;;28.40;71.80;;;;;;5053177;28;20036;-85
2023/08/07 05:59:25;;;;;;;15.32;10.02;;;28.40;72.20;;;;;;5047642;28;20057;-85
2023/08/07 06:01:51;;;;;;;13.50;8.88;;;28.40;72.60;;;;;;5048578;28;20037;-84
2023/08/07 06:04:17;;;;;;;10.43;9.13;;;28.40;72.70;;;;;;5046702;28;20033;-84
2023/08/07 06:06:43;;;;;;;10.63;8.55;;;28.40;72.90;;;;;;5049337;28;20174;-85
2023/08/07 06:09:15;;;;;;;11.48;9.13;;;28.50;73.00;;;;;;5051654;28;20025;-86
2023/08/07 06:11:41;;;;;;;9.40;8.32;;;28.50;73.20;;;;;;5037392;28;20076;-85
2023/08/07 06:14:07;;;;;;;9.63;8.27;;;28.50;73.30;;;;;;5034021;28;20025;-85
2023/08/07 06:16:32;;;;;;;9.95;8.70;;;28.50;73.80;;;;;;5049813;28;20080;-85
2023/08/07 06:18:58;;;;;;;12.60;8.15;;;28.40;73.90;;;;;;5052280;28;20052;-85
2023/08/07 06:21:24;;;;;;;9.48;8.05;;;28.40;74.10;;;;;;5039051;28;20045;-84
2023/08/07 06:23:50;;;;;;;9.05;8.00;;;28.50;74.40;;;;;;5039653;28;20068;-83
2023/08/07 06:26:16;;;;;;;9.05;7.72;;;28.40;74.40;;;;;;5051731;28;20033;-83
2023/08/07 06:28:42;;;;;;;10.35;8.05;;;28.40;74.50;;;;;;5044163;28;20037;-83
2023/08/07 06:31:10;;;;;;;10.52;8.07;;;28.40;74.70;;;;;;5044352;28;20030;-83
2023/08/07 06:33:36;;;;;;;11.10;7.95;;;28.40;74.80;;;;;;5049477;28;20076;-84
2023/08/07 06:36:04;;;;;;;8.95;8.07;;;28.30;75.00;;;;;;5042394;28;20037;-83
2023/08/07 06:38:30;;;;;;;10.98;7.95;;;28.30;75.40;;;;;;5030379;28;20121;-83
2023/08/07 06:40:57;;;;;;;12.98;8.07;;;28.30;75.60;;;;;;5042915;28;20033;-83
2023/08/07 06:43:22;;;;;;;11.45;8.88;;;28.20;75.70;;;;;;5043466;28;20025;-84
2023/08/07 06:45:55;;;;;;;14.35;8.60;;;28.20;76.00;;;;;;5014573;28;20044;-83
2023/08/07 06:48:21;;;;;;;10.65;8.25;;;28.20;76.30;;;;;;5028137;28;20041;-84
2023/08/07 06:50:48;;;;;;;13.70;9.82;;;28.20;76.70;;;;;;5037817;28;20455;-84
2023/08/07 06:53:14;;;;;;;19.75;13.25;;;28.20;76.50;;;;;;5027732;28;20393;-84
2023/08/07 06:55:41;;;;;;;18.85;12.00;;;28.20;76.50;;;;;;5033268;28;20120;-85
2023/08/07 06:58:07;;;;;;;16.98;10.77;;;28.30;76.70;;;;;;5034101;28;20268;-85
2023/08/07 07:00:37;;;;;;;15.13;11.13;;;28.30;76.60;;;;;;5031809;28;20032;-87
2023/08/07 07:03:03;;;;;;;22.67;14.45;;;28.30;76.30;;;;;;5032937;28;20052;-85
2023/08/07 07:05:30;;;;;;;22.77;14.85;;;28.40;76.10;;;;;;5028331;28;20025;-85
2023/08/07 07:07:56;;;;;;;17.35;13.20;;;28.40;76.10;;;;;;4996437;28;20395;-83
2023/08/07 07:10:21;;;;;;;15.27;12.50;;;28.40;76.10;;;;;;4972276;28;20046;-84
2023/08/07 07:12:48;;;;;;;16.00;12.40;;;28.40;76.10;;;;;;4974442;28;20038;-85
2023/08/07 07:15:14;;;;;;;21.02;14.52;;;28.40;76.30;;;;;;4990371;28;20028;-86
2023/08/07 07:17:39;;;;;;;17.27;11.38;;;28.50;76.30;;;;;;5002201;28;20093;-88
2023/08/07 07:20:13;;;;;;;13.18;10.20;;;28.50;76.40;;;;;;4987313;28;20049;-87
2023/08/07 07:22:39;;;;;;;11.90;8.68;;;28.40;76.10;;;;;;5019936;23;20128;-88
2023/08/07 07:25:06;;;;;;;9.50;7.90;;;28.40;76.80;;;;;;5003279;28;20027;-88
2023/08/07 07:27:31;;;;;;;10.80;8.77;;;28.40;77.00;;;;;;5001623;28;20449;-86
2023/08/07 07:29:57;;;;;;;12.90;8.27;;;28.40;77.20;;;;;;5003897;28;20088;-89
2023/08/07 07:32:23;;;;;;;9.60;8.13;;;28.40;77.30;;;;;;5005871;28;20073;-83
2023/08/07 07:34:49;;;;;;;12.88;9.27;;;28.40;77.20;;;;;;5020172;28;20040;-85
2023/08/07 07:37:16;;;;;;;11.48;9.48;;;28.40;77.00;;;;;;5021863;28;20534;-85
2023/08/07 07:39:42;;;;;;;8.77;7.82;;;28.50;77.00;;;;;;5004178;28;20124;-86
2023/08/07 07:42:08;;;;;;;9.88;8.07;;;28.50;76.50;;;;;;5004744;28;20116;-88
2023/08/07 07:44:36;;;;;;;8.90;7.78;;;28.50;76.70;;;;;;5007143;28;20017;-89
2023/08/07 07:47:02;;;;;;;9.23;7.78;;;28.40;76.40;;;;;;5022466;28;20083;-85
2023/08/07 07:49:27;;;;;;;8.85;7.45;;;28.40;75.50;;;;;;5005204;28;20487;-88
2023/08/07 07:51:53;;;;;;;8.35;6.95;;;28.40;75.90;;;;;;5021883;28;20520;-89
2023/08/07 07:54:19;;;;;;;8.65;7.72;;;28.40;75.20;;;;;;5024090;28;20168;-86
2023/08/07 07:56:44;;;;;;;8.35;7.50;;;28.40;75.10;;;;;;5017700;28;20108;-87
2023/08/07 07:59:10;;;;;;;9.82;7.22;;;28.40;75.10;;;;;;5002188;28;20084;-87
2023/08/07 08:01:36;;;;;;;8.23;7.30;;;28.40;74.80;;;;;;5005633;28;20030;-85
2023/08/07 08:04:02;;;;;;;8.73;7.82;;;28.40;74.80;;;;;;5004628;28;22069;-86
2023/08/07 08:06:27;;;;;;;8.75;7.85;;;28.40;75.00;;;;;;5003237;28;20097;-83
2023/08/07 08:08:53;;;;;;;11.45;8.13;;;28.50;75.20;;;;;;4975512;28;20129;-82
2023/08/07 08:11:18;;;;;;;8.57;7.70;;;28.50;75.10;;;;;;5003315;28;20030;-84
2023/08/07 08:13:44;;;;;;;10.10;7.90;;;28.50;75.10;;;;;;5006313;28;20026;-84
2023/08/07 08:16:10;;;;;;;12.20;8.35;;;28.50;75.00;;;;;;5016647;28;20026;-83
2023/08/07 08:18:35;;;;;;;10.10;8.20;;;28.50;75.10;;;;;;5006909;28;20040;-81
2023/08/07 08:21:01;;;;;;;12.43;8.35;;;28.50;75.80;;;;;;5007623;28;20588;-84
2023/08/07 08:23:27;;;;;;;14.73;8.68;;;28.50;74.90;;;;;;5000411;28;20088;-84
2023/08/07 08:25:52;;;;;;;12.68;8.40;;;28.50;74.80;;;;;;5014388;28;20049;-84
2023/08/07 08:28:18;;;;;;;14.90;8.05;;;28.60;74.60;;;;;;5004152;28;20052;-84
2023/08/07 08:30:44;;;;;;;14.98;8.63;;;28.60;73.90;;;;;;5018971;28;20056;-83
2023/08/07 08:33:12;;;;;;;15.50;8.02;;;28.70;72.80;;;;;;5019887;28;20116;-84
2023/08/07 08:35:38;;;;;;;15.52;8.05;;;28.80;72.70;;;;;;5005668;28;20029;-85
2023/08/07 08:38:04;;;;;;;14.65;8.90;;;28.80;72.10;;;;;;5023378;28;20393;-83
2023/08/07 08:40:30;;;;;;;10.48;6.57;;;28.90;70.60;;;;;;5008737;28;20018;-83
2023/08/07 08:42:59;;;;;;;9.43;6.85;;;29.00;69.80;;;;;;5006500;28;20030;-85
2023/08/07 08:45:26;;;;;;;12.25;6.43;;;29.10;68.30;;;;;;5021074;28;20230;-85
2023/08/07 08:48:00;;;;;;;9.55;7.35;;;29.20;67.10;;;;;;5021344;28;20026;-84
2023/08/07 08:50:26;;;;;;;9.15;5.63;;;29.30;67.20;;;;;;5021279;28;20100;-87
2023/08/07 08:52:55;;;;;;;6.88;5.88;;;29.30;66.50;;;;;;5005722;28;20033;-84
2023/08/07 08:55:22;;;;;;;7.57;5.53;;;29.40;66.30;;;;;;5024958;28;20099;-86
2023/08/07 08:57:49;;;;;;;7.03;5.55;;;29.40;66.30;;;;;;5003877;28;20122;-84
2023/08/07 09:00:20;;;;;;;8.07;5.50;;;29.40;65.80;;;;;;5009722;28;20054;-86
2023/08/07 09:02:46;;;;;;;;;;;29.40;65.30;;;;;;5026281;28;20117;-86
2023/08/07 09:05:13;;;;;;;8.32;5.28;;;29.40;65.90;;;;;;5029033;28;20574;-86
2023/08/07 09:07:39;;;;;;;6.68;5.20;;;29.40;65.40;;;;;;5019244;28;20401;-85
2023/08/07 09:10:06;;;;;;;6.38;5.10;;;29.40;65.70;;;;;;5010396;28;20037;-86
2023/08/07 09:12:33;;;;;;;8.27;5.25;;;29.30;64.80;;;;;;5030059;28;20038;-86
2023/08/07 09:15:03;;;;;;;5.95;5.10;;;29.30;64.80;;;;;;5031040;28;20088;-83
2023/08/07 09:17:33;;;;;;;9.60;5.53;;;29.30;64.70;;;;;;5012426;28;20581;-83
2023/08/07 09:19:59;;;;;;;7.70;5.57;;;29.30;64.60;;;;;;5022031;28;20042;-83
2023/08/07 09:22:25;;;;;;;8.45;6.05;;;29.30;64.40;;;;;;5008177;28;20057;-83
2023/08/07 09:24:50;;;;;;;8.77;4.88;;;29.20;64.50;;;;;;5007701;28;20026;-83
2023/08/07 09:27:16;;;;;;;6.30;4.63;;;29.20;63.70;;;;;;5006699;28;20034;-84
2023/08/07 09:29:43;;;;;;;5.10;4.60;;;29.20;63.30;;;;;;5022820;28;20057;-84
2023/08/07 09:32:12;;;;;;;6.28;4.97;;;29.20;63.20;;;;;;5012055;28;20065;-83
2023/08/07 09:34:42;;;;;;;7.78;4.82;;;29.20;63.30;;;;;;5010767;28;20061;-86
2023/08/07 09:37:11;;;;;;;5.93;4.90;;;29.20;63.40;;;;;;5022832;28;20124;-83
2023/08/07 09:39:37;;;;;;;7.35;4.97;;;29.20;63.30;;;;;;5006270;28;20076;-84
2023/08/07 09:42:04;;;;;;;6.32;4.75;;;29.20;63.80;;;;;;5027974;28;20029;-84
2023/08/07 09:44:36;;;;;;;7.53;4.22;;;29.30;63.50;;;;;;5022453;28;20115;-83
2023/08/07 09:47:15;;;;;;;5.32;3.97;;;29.20;63.40;;;;;;5006046;28;20083;-85
2023/08/07 09:49:41;;;;;;;6.75;4.32;;;29.20;63.40;;;;;;5003827;28;20068;-81
2023/08/07 09:52:13;;;;;;;6.80;4.43;;;29.20;63.50;;;;;;5012849;28;20065;-83
2023/08/07 09:54:39;;;;;;;6.07;4.20;;;29.20;63.70;;;;;;5003239;28;20022;-82
2023/08/07 09:57:06;;;;;;;8.70;4.78;;;29.20;63.30;;;;;;5019645;28;20033;-83
2023/08/07 09:59:33;;;;;;;5.57;4.80;;;29.20;63.20;;;;;;5019493;28;20034;-83
2023/08/07 10:02:02;;;;;;;6.32;4.53;;;29.20;63.30;;;;;;5002229;28;20034;-87
2023/08/07 10:04:28;;;;;;;9.40;4.22;;;29.20;62.70;;;;;;5022092;28;20061;-83
2023/08/07 10:06:54;;;;;;;10.43;4.35;;;29.20;62.30;;;;;;5017350;28;20089;-83
2023/08/07 10:09:21;;;;;;;7.20;5.13;;;29.30;62.00;;;;;;5005937;28;20041;-85
2023/08/07 10:11:47;;;;;;;6.20;4.68;;;29.30;61.90;;;;;;5006518;28;20064;-83
2023/08/07 10:14:14;;;;;;;6.30;4.18;;;29.30;62.00;;;;;;5004397;28;20038;-82
2023/08/07 10:16:41;;;;;;;5.78;4.30;;;29.30;62.00;;;;;;5005071;28;20060;-83
2023/08/07 10:19:08;;;;;;;6.28;4.72;;;29.30;62.00;;;;;;5004450;28;20031;-84
2023/08/07 10:21:36;;;;;;;6.78;4.60;;;29.30;62.20;;;;;;5008392;28;20466;-84
2023/08/07 10:24:04;;;;;;;5.18;4.47;;;29.30;62.10;;;;;;5019462;28;20073;-83
2023/08/07 10:26:35;;;;;;;7.93;4.90;;;29.30;62.10;;;;;;5001223;28;20058;-83
2023/08/07 10:29:04;;;;;;;6.95;4.75;;;29.30;62.40;;;;;;5017811;28;20317;-81
2023/08/07 10:31:31;;;;;;;7.22;4.80;;;29.30;62.60;;;;;;5003053;28;20478;-81
2023/08/07 10:33:58;;;;;;;6.47;5.00;;;29.30;62.90;;;;;;5006411;28;20141;-82
2023/08/07 10:36:23;;;;;;;8.05;5.60;;;29.30;63.20;;;;;;5008092;28;20546;-82
2023/08/07 10:38:51;;;;;;;7.72;5.53;;;29.30;63.60;;;;;;5006801;28;20108;-80
2023/08/07 10:41:18;;;;;;;11.27;6.20;;;29.30;64.00;;;;;;5016614;28;20549;-81
2023/08/07 10:43:45;;;;;;;7.15;5.22;;;29.30;64.30;;;;;;5001395;28;20109;-82
2023/08/07 10:46:15;;;;;;;6.97;5.47;;;29.30;64.60;;;;;;5017854;28;20095;-81
2023/08/07 10:48:47;;;;;;;7.35;5.40;;;29.30;65.00;;;;;;5019066;28;20566;-83
2023/08/07 10:51:18;;;;;;;6.13;5.25;;;29.30;64.90;;;;;;5006400;28;20504;-81
2023/08/07 10:53:48;;;;;;;6.47;5.75;;;29.40;64.70;;;;;;5009197;28;20037;-83
2023/08/07 10:56:37;;;;;;;9.60;5.93;;;29.30;64.80;;;;;;5007478;28;20035;-81
2023/08/07 10:59:10;;;;;;;7.65;5.57;;;29.20;64.80;;;;;;5022102;28;20065;-81
2023/08/07 11:01:41;;;;;;;7.68;5.40;;;29.20;64.70;;;;;;5003373;28;20150;-82
2023/08/07 11:04:12;;;;;;;6.90;5.10;;;29.20;65.10;;;;;;4999923;28;20041;-82
2023/08/07 11:06:40;;;;;;;7.05;5.13;;;29.10;64.90;;;;;;5008475;28;20035;-81
2023/08/07 11:09:07;;;;;;;6.43;5.35;;;29.00;64.60;;;;;;5006529;28;20029;-82
2023/08/07 11:11:41;;;;;;;6.57;5.88;;;29.00;64.80;;;;;;5005697;28;20072;-84
2023/08/07 11:14:15;;;;;;;8.95;5.90;;;28.90;64.80;;;;;;5003066;28;20072;-83
2023/08/07 11:16:42;;;;;;;6.97;6.00;;;28.90;65.00;;;;;;5015187;28;20034;-81
2023/08/07 11:19:16;;;;;;;11.38;6.03;;;28.90;64.80;;;;;;5022246;28;20109;-84
2023/08/07 11:21:42;;;;;;;6.97;6.28;;;28.90;64.70;;;;;;5007131;28;20079;-83
2023/08/07 11:24:10;;;;;;;7.35;5.50;;;28.80;64.50;;;;;;5024620;28;20060;-83
2023/08/07 11:26:35;;;;;;;5.80;5.20;;;28.80;64.40;;;;;;5021608;28;20473;-84
2023/08/07 11:29:01;;;;;;;6.82;5.05;;;28.80;64.10;;;;;;5001844;28;20041;-83
2023/08/07 11:31:27;;;;;;;6.53;5.03;;;28.70;64.00;;;;;;5027453;28;20032;-83
2023/08/07 11:34:02;;;;;;;7.05;5.32;;;28.70;64.30;;;;;;5022870;28;20030;-83
2023/08/07 11:36:28;;;;;;;6.93;5.15;;;28.70;64.20;;;;;;5021062;28;20049;-83
2023/08/07 11:38:54;;;;;;;9.25;5.50;;;28.70;64.30;;;;;;4999505;28;20470;-82
2023/08/07 11:41:20;;;;;;;6.18;4.70;;;28.70;64.30;;;;;;5000597;28;20026;-84
2023/08/07 11:43:46;;;;;;;6.45;5.30;;;28.70;64.50;;;;;;5002226;28;20880;-83
2023/08/07 11:46:14;;;;;;;5.93;5.18;;;28.70;64.50;;;;;;5010312;28;20033;-82
2023/08/07 11:48:41;;;;;;;7.00;6.30;;;28.70;64.40;;;;;;5010711;28;20050;-83
2023/08/07 11:51:07;;;;;;;6.97;5.75;;;28.70;64.00;;;;;;5022081;28;20048;-82
2023/08/07 11:53:35;;;;;;;9.48;5.75;;;28.70;64.00;;;;;;5018198;28;20041;-82
2023/08/07 11:56:04;;;;;;;7.30;6.05;;;28.70;64.00;;;;;;5002883;28;20038;-81
2023/08/07 11:58:40;;;;;;;6.10;5.50;;;28.60;64.00;;;;;;5015402;28;20041;-83
2023/08/07 12:01:10;;;;;;;6.32;5.72;;;28.60;63.90;;;;;;5018802;28;20032;-83
2023/08/07 12:03:40;;;;;;;6.85;5.80;;;28.60;64.00;;;;;;5001329;28;20030;-83
2023/08/07 12:06:07;;;;;;;5.97;5.38;;;28.60;63.70;;;;;;5015076;28;20037;-83
2023/08/07 12:08:34;;;;;;;7.80;6.10;;;28.60;63.80;;;;;;5018329;28;20022;-82
2023/08/07 12:11:04;;;;;;;6.53;5.47;;;28.60;63.90;;;;;;5004768;28;20143;-81
2023/08/07 12:13:29;;;;;;;6.88;5.88;;;28.60;63.60;;;;;;5000060;28;20500;-82
2023/08/07 12:15:56;;;;;;;8.98;5.57;;;28.50;63.70;;;;;;5005460;28;20041;-82
2023/08/07 12:18:23;;;;;;;5.93;5.35;;;28.50;63.80;;;;;;5000641;28;20026;-82
2023/08/07 12:20:50;;;;;;;7.28;5.82;;;28.50;63.70;;;;;;5003561;28;20041;-82
2023/08/07 12:23:17;;;;;;;5.50;5.00;;;28.50;63.60;;;;;;5003894;28;20041;-82
2023/08/07 12:25:43;;;;;;;7.82;5.20;;;28.40;63.30;;;;;;5020676;28;20026;-82
2023/08/07 12:28:09;;;;;;;5.32;4.82;;;28.50;63.40;;;;;;5003462;28;20026;-83
2023/08/07 12:30:36;;;;;;;5.45;4.20;;;28.50;63.30;;;;;;5001861;28;20045;-82
2023/08/07 12:33:04;;;;;;;4.47;4.07;;;28.40;62.80;;;;;;5003356;28;20026;-84
2023/08/07 12:35:30;;;;;;;6.05;3.88;;;28.40;62.60;;;;;;5018138;28;20034;-84